Latest Coastal Weather Observations for Kowanyama

IDQ60701

Issued at 8:42 am EST Wednesday 10 February 2016 (issued every 10 minutes, with the page automatically refreshed every 10 minutes)

About coastal observations | Map of coastal stations | Coastal observations for QLD | Marine services | Other Formats
Station Details ID: 029038 Name: KOWANYAMA AIRPORT Lat: -15.48 Lon: 141.75 Height: 9.6 m
Data from the previous 72 hours. | See also: Recent months at Kowanyama
Date/Time
EST
Temp

°C
Wind Pressure Rain
since 9am
mm
Weather Cloud Vis
km
Sea
Height
m
Swell
Dir
 
Speed
knots
Gust
knots
hPa Trend Height
m
Period
s
Dir
10/08:30am 27.2 E 4 5 1008.3 - 0.0 - - - - - - -
10/08:00am 25.8 E 3 5 1008.0 - 0.0 - - - - - - -
10/07:30am 25.2 NE 3 5 1007.7 - 0.0 - - - - - - -
10/07:00am 24.9 CALM 0 0 1007.3 - 0.0 - - - - - - -
10/06:30am 24.9 E 4 6 1006.9 - 0.0 - - - - - - -
10/06:00am 25.3 SE 3 4 1006.8 - 0.0 - Mostly clear - - - - -
10/05:30am 25.6 SE 5 6 1006.5 - 0.0 - Partly cloudy - - - - -
10/05:00am 25.6 SE 4 6 1006.3 - 0.0 - Partly cloudy - - - - -
10/04:30am 25.6 CALM 0 0 1006.4 - 0.0 - Cloudy - - - - -
10/04:00am 25.7 SE 1 4 1006.3 - 0.0 - Cloudy - - - - -
10/03:30am 25.6 ESE 2 4 1006.4 - 0.0 - Partly cloudy - - - - -
10/03:23am 25.6 E 4 6 1006.4 - 0.0 - Partly cloudy - - - - -
10/03:02am 25.6 ESE 3 6 1006.5 - 0.0 - Partly cloudy - - - - -
10/03:00am 25.6 ESE 3 5 1006.6 - 0.0 - Cloudy - - - - -
10/02:30am 25.4 ESE 6 8 1006.9 - 0.0 - Partly cloudy - - - - -
10/02:00am 25.2 ESE 6 8 1007.0 - 0.0 - Cloudy - - - - -
10/01:30am 25.4 ESE 6 8 1006.9 - 0.0 - Cloudy - - - - -
10/01:00am 25.5 ESE 2 5 1007.6 - 0.0 - Partly cloudy - - - - -
10/12:30am 25.6 CALM 0 0 1008.3 - 0.0 - Cloudy - - - - -
10/12:00am 25.6 CALM 0 0 1008.5 - 0.0 - Cloudy - - - - -
 
Date/Time
EST
Temp

°C
Wind Pressure Rain
since 9am
mm
Weather Cloud Vis
km
Sea
Height
m
Swell
Dir
 
Speed
knots
Gust
knots
hPa Trend Height
m
Period
s
Dir
09/11:30pm 25.7 CALM 0 0 1008.4 - 0.0 - Cloudy - - - - -
09/11:00pm 25.7 CALM 0 0 1008.7 - 0.0 - Cloudy - - - - -
09/10:30pm 25.8 CALM 0 0 1008.7 - 0.0 - Partly cloudy - - - - -
09/10:00pm 25.7 NNW 3 6 1008.6 - 0.0 - Partly cloudy - - - - -
09/09:30pm 25.5 N 5 9 1008.6 - 0.0 - Cloudy - - - - -
09/09:00pm 25.5 N 7 10 1008.5 - 0.0 - Cloudy - - - - -
09/08:30pm 26.0 N 7 10 1008.5 - 0.0 - Partly cloudy - - - - -
09/08:00pm 26.5 NNE 7 11 1008.4 - 0.0 - Cloudy - - - - -
09/07:30pm 26.7 ENE 4 6 1008.0 - 0.0 - Partly cloudy - - - - -
09/07:00pm 27.1 CALM 0 0 1007.0 - 0.0 - Partly cloudy - - - - -
09/06:30pm 27.2 SSE 6 8 1006.9 - 0.0 - Partly cloudy - - - - -
09/06:00pm 28.1 ESE 12 17 1007.0 - 0.0 - Cloudy - - - - -
09/05:30pm 30.1 SW 5 7 1006.5 - 0.0 - Partly cloudy - - - - -
09/05:00pm 30.5 SW 7 10 1005.6 - 0.0 - - - - - - -
09/04:30pm 31.6 WSW 9 14 1005.2 - 0.0 - Partly cloudy - - - - -
09/04:00pm 32.3 W 11 15 1005.1 - 0.0 - Partly cloudy - - - - -
09/03:30pm 31.8 WSW 10 15 1005.7 - 0.0 - Partly cloudy - - - - -
09/03:00pm 31.7 W 11 16 1005.5 - 0.0 - Mostly clear - - - - -
09/02:30pm 31.7 W 9 11 1005.9 - 0.0 - Partly cloudy - - - - -
09/02:00pm 31.5 WNW 9 13 1006.8 - 0.0 - Partly cloudy - - - - -
09/01:30pm 32.1 WNW 6 8 1007.0 - 0.0 - Partly cloudy - - - - -
09/01:00pm 31.8 WNW 4 7 1007.5 - 0.0 - - - - - - -
09/12:30pm 30.5 CALM 0 3 1008.2 - 0.0 - Cloudy - - - - -
09/12:00pm 29.8 N 3 6 1008.4 - 0.0 - Mostly cloudy - - - - -
09/11:30am 29.0 NNW 5 7 1008.9 - 0.0 - Partly cloudy - - - - -
09/11:00am 28.4 CALM 0 0 1009.4 - 0.0 - Partly cloudy - - - - -
09/10:30am 28.1 NE 5 7 1009.5 - 0.0 - Partly cloudy - - - - -
09/10:00am 28.5 CALM 0 3 1009.5 - 0.0 - Partly cloudy - - - - -
09/09:30am 28.5 NE 3 5 1009.2 - 0.0 - Cloudy - - - - -
09/09:00am 27.7 NNE 1 4 1008.8 - 0.4 Rain Mostly cloudy - - - - -
09/08:30am 27.6 NNE 2 4 1008.6 - 0.0 - Cloudy - - - - -
09/08:00am 27.2 NE 4 6 1008.2 - 0.0 - Partly cloudy - - - - -
09/07:30am 26.9 NNE 5 7 1007.9 - 0.0 - Cloudy - - - - -
09/07:00am 26.5 NE 1 3 1007.5 - 0.0 - Partly cloudy - - - - -
09/06:30am 26.3 NE 1 3 1007.2 - 0.0 - - - - - - -
09/06:00am 26.3 E 2 4 1007.0 - 0.0 - - - - - - -
09/05:30am 26.4 ENE 3 4 1006.8 - 0.0 - - - - - - -
09/05:00am 26.4 ENE 3 5 1006.6 - 0.0 - - - - - - -
09/04:30am 26.6 CALM 0 0 1006.3 - 0.0 - - - - - - -
09/04:00am 26.7 E 1 4 1006.3 - 0.0 - - - - - - -
09/03:30am 26.8 ESE 3 5 1006.5 - 0.0 - - - - - - -
09/03:00am 26.9 SE 4 5 1006.6 - 0.0 - Mostly cloudy - - - - -
09/02:30am 26.8 E 3 5 1006.8 - 0.0 - Partly cloudy - - - - -
09/02:00am 26.9 CALM 0 0 1006.9 - 0.0 - - - - - - -
09/01:30am 27.0 CALM 0 0 1007.1 - 0.0 - Partly cloudy - - - - -
09/01:00am 27.2 CALM 0 0 1007.8 - 0.0 - Cloudy - - - - -
09/12:30am 27.1 CALM 0 0 1008.3 - 0.0 - Partly cloudy - - - - -
09/12:00am 27.2 CALM 0 0 1008.5 - 0.0 - Mostly clear - - - - -
 
Date/Time
EST
Temp

°C
Wind Pressure Rain
since 9am
mm
Weather Cloud Vis
km
Sea
Height
m
Swell
Dir
 
Speed
knots
Gust
knots
hPa Trend Height
m
Period
s
Dir
08/11:30pm 27.2 CALM 0 0 1008.5 - 0.0 - - - - - - -
08/11:00pm 27.5 CALM 0 0 1008.5 - 0.0 - Partly cloudy - - - - -
08/10:30pm 27.6 CALM 0 0 1008.7 - 0.0 - Partly cloudy - - - - -
08/10:00pm 27.8 CALM 0 0 1008.3 - 0.0 - - - - - - -
08/09:30pm 28.2 CALM 0 0 1008.2 - 0.0 - Partly cloudy - - - - -
08/09:00pm 28.4 CALM 0 0 1008.4 - 0.0 - Cloudy - - - - -
08/08:30pm 28.4 CALM 0 0 1008.3 - 0.0 - Cloudy - - - - -
08/08:00pm 28.4 CALM 0 0 1008.2 - 0.0 - Cloudy - - - - -
08/07:30pm 28.5 CALM 0 0 1007.8 - 0.0 - Partly cloudy - - - - -
08/07:00pm 28.8 CALM 0 0 1007.6 - 0.0 - Partly cloudy - - - - -
08/06:30pm 29.1 CALM 0 0 1007.1 - 0.0 - Partly cloudy - - - - -
08/06:00pm 29.2 CALM 0 0 1006.8 - 0.0 - Cloudy - - - - -
08/05:30pm 29.1 W 3 5 1006.6 - 0.0 - Partly cloudy - - - - -
08/05:00pm 29.2 W 5 7 1006.4 - 0.0 - Cloudy - - - - -
08/04:30pm 29.1 WNW 7 9 1006.3 - 0.0 - Partly cloudy - - - - -
08/04:00pm 29.0 NW 5 8 1006.4 - 0.0 - Partly cloudy - - - - -
08/03:30pm 29.9 WSW 5 8 1006.6 - 0.0 - Partly cloudy - - - - -
08/03:00pm 30.0 SW 7 10 1006.9 - 0.0 - Mostly cloudy - - - - -
08/02:30pm 29.1 WSW 6 9 1007.2 - 0.0 - Partly cloudy - - - - -
08/02:00pm 27.9 S 6 10 1007.6 - 0.0 - Partly cloudy - - - - -
08/01:30pm 27.1 S 8 11 1008.2 - 0.0 - Partly cloudy - - - - -
08/01:00pm 27.6 SE 9 12 1008.8 - 0.0 - Partly cloudy - - - - -
08/12:30pm 31.5 WNW 6 8 1008.8 - 0.0 - Partly cloudy - - - - -
08/12:00pm 31.7 WNW 5 7 1009.3 - 0.0 - Mostly cloudy - - - - -
08/11:30am 31.7 NW 5 8 1009.5 - 0.0 - Partly cloudy - - - - -
08/11:00am 31.7 NW 6 9 1009.5 - 0.0 - Cloudy - - - - -
08/10:30am 31.3 WNW 5 8 1009.6 - 0.0 - Cloudy - - - - -
08/10:00am 30.9 WNW 4 6 1009.5 - 0.0 - Cloudy - - - - -
08/09:30am 30.1 NNW 2 6 1009.5 - 0.0 - Cloudy - - - - -
08/09:00am 30.0 NNW 3 5 1009.4 - 0.2 - Cloudy - - - - -
08/08:30am 29.2 N 1 4 1009.1 - 0.2 - Cloudy - - - - -
08/08:00am 28.4 CALM 0 0 1008.6 - 0.2 - Cloudy - - - - -
08/07:30am 28.0 CALM 0 0 1008.2 - 0.2 - Partly cloudy - - - - -
08/07:00am 27.6 CALM 0 0 1007.8 - 0.2 - Cloudy - - - - -
08/06:30am 27.5 CALM 0 3 1007.4 - 0.2 - Cloudy - - - - -
08/06:00am 27.5 CALM 0 0 1007.2 - 0.2 - Cloudy - - - - -
08/05:30am 27.5 CALM 0 0 1007.0 - 0.2 - Cloudy - - - - -
08/05:00am 27.8 CALM 0 0 1006.8 - 0.2 - Cloudy - - - - -
08/04:30am 27.8 CALM 0 0 1006.7 - 0.2 - Cloudy - - - - -
08/04:00am 27.9 CALM 0 0 1006.7 - 0.2 - Partly cloudy - - - - -
08/03:30am 27.9 CALM 0 0 1006.7 - 0.2 - Cloudy - - - - -
08/03:00am 28.0 CALM 0 0 1006.6 - 0.2 - Cloudy - - - - -
08/02:30am 27.9 WNW 1 4 1006.8 - 0.2 - Partly cloudy - - - - -
08/02:00am 28.0 NW 1 4 1007.2 - 0.2 - Cloudy - - - - -
08/01:30am 28.2 NW 4 5 1007.7 - 0.2 - Cloudy - - - - -
08/01:00am 28.2 NW 4 6 1008.1 - 0.2 - Partly cloudy - - - - -
08/12:30am 28.4 NW 1 4 1008.6 - 0.2 - Partly cloudy - - - - -
08/12:00am 28.3 WNW 3 4 1008.8 - 0.2 - Cloudy - - - - -
 
Date/Time
EST
Temp

°C
Wind Pressure Rain
since 9am
mm
Weather Cloud Vis
km
Sea
Height
m
Swell
Dir
 
Speed
knots
Gust
knots
hPa Trend Height
m
Period
s
Dir
07/11:30pm 28.5 CALM 0 0 1009.0 - 0.2 - Partly cloudy - - - - -
07/11:00pm 28.8 NW 3 5 1009.0 - 0.2 - Cloudy - - - - -
07/10:30pm 29.0 NW 3 5 1008.8 - 0.2 - Partly cloudy - - - - -
07/10:00pm 29.0 NW 1 3 1008.6 - 0.2 - Partly cloudy - - - - -
07/09:30pm 28.9 WNW 3 4 1008.2 - 0.2 - Cloudy - - - - -
07/09:00pm 28.9 CALM 0 0 1008.0 - 0.2 - Cloudy - - - - -
07/08:30pm 29.2 S 3 3 1007.8 - 0.2 - Partly cloudy - - - - -
07/08:00pm 29.6 SW 4 5 1007.7 - 0.2 - Partly cloudy - - - - -
07/07:30pm 29.8 WSW 6 7 1007.3 - 0.2 - Partly cloudy - - - - -
07/07:00pm 30.1 WSW 7 10 1006.7 - 0.2 - Partly cloudy - - - - -
07/06:30pm 30.5 WSW 7 10 1006.1 - 0.2 - Partly cloudy - - - - -
07/06:00pm 31.1 WSW 8 11 1005.9 - 0.2 - Cloudy - - - - -
07/05:30pm 32.2 W 9 15 1005.3 - 0.2 - Partly cloudy - - - - -
07/05:00pm 32.6 W 9 13 1005.2 - 0.2 - Partly cloudy - - - - -
07/04:30pm 32.5 W 10 14 1005.0 - 0.2 - Partly cloudy - - - - -
07/04:00pm 32.7 WNW 10 13 1004.9 - 0.2 - Partly cloudy - - - - -
07/03:30pm 33.1 WNW 10 14 1005.0 - 0.2 - Partly cloudy - - - - -
07/03:00pm 33.0 WNW 10 14 1005.3 - 0.2 - Cloudy - - - - -
07/02:30pm 31.3 WNW 10 15 1005.6 - 0.2 - Cloudy - - - - -
07/02:00pm 30.3 W 8 11 1005.9 - 0.2 - Partly cloudy - - - - -
07/01:30pm 33.0 WNW 9 12 1006.2 - 0.0 - Partly cloudy - - - - -
07/01:00pm 33.6 WNW 9 11 1006.6 - 0.0 - - - - - - -
07/12:30pm 33.3 NW 8 10 1007.0 - 0.0 - Partly cloudy - - - - -
07/12:00pm 32.8 NW 8 13 1007.3 - 0.0 - Partly cloudy - - - - -
07/11:30am 32.3 NW 8 13 1007.5 - 0.0 - Partly cloudy - - - - -
07/11:00am 32.7 NW 7 13 1007.6 - 0.0 - Partly cloudy - - - - -
07/10:30am 32.2 NNW 7 11 1007.6 - 0.0 - Partly cloudy - - - - -
07/10:00am 32.2 WNW 8 13 1007.7 - 0.0 - Partly cloudy - - - - -
07/09:30am 31.4 NW 8 11 1007.6 - 0.0 - Partly cloudy - - - - -
07/09:00am 31.1 NW 6 8 1007.4 - 0.2 - - - - - - -

Other Formats:

Comma delimited format used in spreadsheet applications
http://www.bom.gov.au/fwo/IDQ60701/IDQ60701.94268.axf

JavaScript Object Notation format (JSON) in row-major order
http://www.bom.gov.au/fwo/IDQ60701/IDQ60701.94268.json